sensor_id;sensor_type;location;lat;lon;timestamp;pressure;altitude;pressure_sealevel;temperature;humidity
60087;BME280;45960;53.630;55.972;2023-04-04T00:00:46;100615.75;;;4.12;29.81
60087;BME280;45960;53.630;55.972;2023-04-04T00:01:47;100615.75;;;4.12;29.67
60087;BME280;45960;53.630;55.972;2023-04-04T00:02:48;100613.13;;;4.12;29.69
60087;BME280;45960;53.630;55.972;2023-04-04T00:03:50;100620.19;;;4.12;29.83
60087;BME280;45960;53.630;55.972;2023-04-04T00:04:51;100614.91;;;4.12;29.69
60087;BME280;45960;53.630;55.972;2023-04-04T00:05:52;100614.00;;;4.11;29.95
60087;BME280;45960;53.630;55.972;2023-04-04T00:06:53;100612.28;;;4.10;29.97
60087;BME280;45960;53.630;55.972;2023-04-04T00:07:54;100617.59;;;4.10;29.92
60087;BME280;45960;53.630;55.972;2023-04-04T00:08:55;100615.88;;;4.09;30.00
60087;BME280;45960;53.630;55.972;2023-04-04T00:09:56;100610.63;;;4.08;29.84
60087;BME280;45960;53.630;55.972;2023-04-04T00:11:00;100616.84;;;4.07;29.96
60087;BME280;45960;53.630;55.972;2023-04-04T00:12:01;100612.44;;;4.06;29.83
60087;BME280;45960;53.630;55.972;2023-04-04T00:13:02;100614.22;;;4.05;29.95
60087;BME280;45960;53.630;55.972;2023-04-04T00:14:03;100612.50;;;4.04;29.81
60087;BME280;45960;53.630;55.972;2023-04-04T00:15:05;100610.75;;;4.03;29.91
60087;BME280;45960;53.630;55.972;2023-04-04T00:16:06;100609.91;;;4.02;29.92
60087;BME280;45960;53.630;55.972;2023-04-04T00:17:07;100614.34;;;4.02;29.98
60087;BME280;45960;53.630;55.972;2023-04-04T00:18:08;100609.97;;;4.01;30.02
60087;BME280;45960;53.630;55.972;2023-04-04T00:19:09;100617.06;;;3.99;29.81
60087;BME280;45960;53.630;55.972;2023-04-04T00:20:13;100615.38;;;3.98;30.05
60087;BME280;45960;53.630;55.972;2023-04-04T00:21:14;100605.69;;;3.97;30.10
60087;BME280;45960;53.630;55.972;2023-04-04T00:22:15;100613.59;;;3.97;30.06
60087;BME280;45960;53.630;55.972;2023-04-04T00:23:15;100607.50;;;3.95;30.07
60087;BME280;45960;53.630;55.972;2023-04-04T00:24:17;100619.00;;;3.94;29.96
60087;BME280;45960;53.630;55.972;2023-04-04T00:25:18;100617.28;;;3.93;30.31
60087;BME280;45960;53.630;55.972;2023-04-04T00:26:19;100613.78;;;3.92;30.09
60087;BME280;45960;53.630;55.972;2023-04-04T00:27:22;100612.88;;;3.92;30.12
60087;BME280;45960;53.630;55.972;2023-04-04T00:28:22;100615.59;;;3.90;29.93
60087;BME280;45960;53.630;55.972;2023-04-04T00:29:23;100615.63;;;3.89;30.05
60087;BME280;45960;53.630;55.972;2023-04-04T00:30:24;100611.28;;;3.88;30.16
60087;BME280;45960;53.630;55.972;2023-04-04T00:31:25;100623.66;;;3.86;30.15
60087;BME280;45960;53.630;55.972;2023-04-04T00:32:26;100614.91;;;3.84;30.38
60087;BME280;45960;53.630;55.972;2023-04-04T00:33:27;100611.47;;;3.81;30.22
60087;BME280;45960;53.630;55.972;2023-04-04T00:34:28;100613.28;;;3.79;30.23
60087;BME280;45960;53.630;55.972;2023-04-04T00:35:29;100613.34;;;3.78;30.25
60087;BME280;45960;53.630;55.972;2023-04-04T00:36:30;100620.41;;;3.77;30.33
60087;BME280;45960;53.630;55.972;2023-04-04T00:37:31;100623.16;;;3.74;30.47
60087;BME280;45960;53.630;55.972;2023-04-04T00:38:32;100612.63;;;3.73;30.59
60087;BME280;45960;53.630;55.972;2023-04-04T00:39:33;100617.09;;;3.71;30.47
60087;BME280;45960;53.630;55.972;2023-04-04T00:40:43;100620.59;;;3.71;30.62
60087;BME280;45960;53.630;55.972;2023-04-04T00:41:47;100622.41;;;3.69;30.72
60087;BME280;45960;53.630;55.972;2023-04-04T00:42:48;100618.06;;;3.68;30.62
60087;BME280;45960;53.630;55.972;2023-04-04T00:43:49;100618.97;;;3.67;30.75
60087;BME280;45960;53.630;55.972;2023-04-04T00:44:50;100619.88;;;3.66;30.72
60087;BME280;45960;53.630;55.972;2023-04-04T00:45:52;100619.09;;;3.64;30.64
60087;BME280;45960;53.630;55.972;2023-04-04T00:46:52;100615.63;;;3.62;30.73
60087;BME280;45960;53.630;55.972;2023-04-04T00:47:54;100624.44;;;3.61;30.59
60087;BME280;45960;53.630;55.972;2023-04-04T00:48:55;100620.06;;;3.60;30.57
60087;BME280;45960;53.630;55.972;2023-04-04T00:49:57;100622.72;;;3.60;30.67
60087;BME280;45960;53.630;55.972;2023-04-04T00:50:58;100624.53;;;3.58;30.83
60087;BME280;45960;53.630;55.972;2023-04-04T00:51:58;100621.09;;;3.56;30.80
60087;BME280;45960;53.630;55.972;2023-04-04T00:52:59;100622.84;;;3.55;30.90
60087;BME280;45960;53.630;55.972;2023-04-04T00:54:00;100616.78;;;3.53;30.89
60087;BME280;45960;53.630;55.972;2023-04-04T00:55:01;100620.28;;;3.54;30.96
60087;BME280;45960;53.630;55.972;2023-04-04T00:56:03;100621.19;;;3.53;30.89
60087;BME280;45960;53.630;55.972;2023-04-04T00:57:05;100618.63;;;3.50;30.89
60087;BME280;45960;53.630;55.972;2023-04-04T00:58:07;100617.75;;;3.49;30.75
60087;BME280;45960;53.630;55.972;2023-04-04T00:59:08;100622.22;;;3.47;30.95
60087;BME280;45960;53.630;55.972;2023-04-04T01:00:09;100614.34;;;3.46;31.09
60087;BME280;45960;53.630;55.972;2023-04-04T01:01:11;100628.47;;;3.45;31.07
60087;BME280;45960;53.630;55.972;2023-04-04T01:02:12;100617.91;;;3.45;31.05
60087;BME280;45960;53.630;55.972;2023-04-04T01:03:13;100618.88;;;3.42;31.11
60087;BME280;45960;53.630;55.972;2023-04-04T01:04:14;100618.91;;;3.41;30.98
60087;BME280;45960;53.630;55.972;2023-04-04T01:05:15;100616.25;;;3.41;30.98
60087;BME280;45960;53.630;55.972;2023-04-04T01:06:16;100625.97;;;3.40;31.09
60087;BME280;45960;53.630;55.972;2023-04-04T01:07:17;100622.50;;;3.38;31.10
60087;BME280;45960;53.630;55.972;2023-04-04T01:08:20;100633.94;;;3.39;31.15
60087;BME280;45960;53.630;55.972;2023-04-04T01:09:22;100625.22;;;3.36;30.96
60087;BME280;45960;53.630;55.972;2023-04-04T01:10:23;100624.31;;;3.36;31.20
60087;BME280;45960;53.630;55.972;2023-04-04T01:11:24;100619.13;;;3.33;31.17
60087;BME280;45960;53.630;55.972;2023-04-04T01:12:25;100623.56;;;3.32;31.30
60087;BME280;45960;53.630;55.972;2023-04-04T01:13:26;100617.44;;;3.30;31.12
60087;BME280;45960;53.630;55.972;2023-04-04T01:14:28;100624.50;;;3.30;31.32
60087;BME280;45960;53.630;55.972;2023-04-04T01:15:29;100618.38;;;3.29;31.16
60087;BME280;45960;53.630;55.972;2023-04-04T01:16:30;100620.16;;;3.29;31.30
60087;BME280;45960;53.630;55.972;2023-04-04T01:17:32;100625.47;;;3.27;31.40
60087;BME280;45960;53.630;55.972;2023-04-04T01:18:33;100621.09;;;3.26;31.29
60087;BME280;45960;53.630;55.972;2023-04-04T01:19:43;100615.00;;;3.24;31.27
60087;BME280;45960;53.630;55.972;2023-04-04T01:20:56;100626.47;;;3.23;31.34
60087;BME280;45960;53.630;55.972;2023-04-04T01:21:58;100624.75;;;3.22;31.48
60087;BME280;45960;53.630;55.972;2023-04-04T01:23:01;100620.38;;;3.21;31.38
60087;BME280;45960;53.630;55.972;2023-04-04T01:24:04;100620.38;;;3.21;31.63
60087;BME280;45960;53.630;55.972;2023-04-04T01:25:27;100618.66;;;3.20;31.42
60087;BME280;45960;53.630;55.972;2023-04-04T01:26:31;100614.25;;;3.19;31.52
60087;BME280;45960;53.630;55.972;2023-04-04T01:27:36;100618.75;;;3.17;31.44
60087;BME280;45960;53.630;55.972;2023-04-04T01:28:43;100617.88;;;3.17;31.57
60087;BME280;45960;53.630;55.972;2023-04-04T01:29:46;100617.00;;;3.16;31.66
60087;BME280;45960;53.630;55.972;2023-04-04T01:30:49;100615.28;;;3.15;31.58
60087;BME280;45960;53.630;55.972;2023-04-04T01:31:55;100617.94;;;3.13;31.54
60087;BME280;45960;53.630;55.972;2023-04-04T01:33:01;100617.06;;;3.13;31.59
60087;BME280;45960;53.630;55.972;2023-04-04T01:34:27;100611.81;;;3.13;31.70
60087;BME280;45960;53.630;55.972;2023-04-04T01:35:32;100624.19;;;3.11;31.29
60087;BME280;45960;53.630;55.972;2023-04-04T01:36:38;100618.94;;;3.11;31.53
60087;BME280;45960;53.630;55.972;2023-04-04T01:39:45;100617.16;;;3.10;31.58
60087;BME280;45960;53.630;55.972;2023-04-04T01:40:20;100618.97;;;3.08;31.79
60087;BME280;45960;53.630;55.972;2023-04-04T01:41:23;100619.97;;;3.05;31.79
60087;BME280;45960;53.630;55.972;2023-04-04T01:42:30;100626.13;;;3.04;31.94
60087;BME280;45960;53.630;55.972;2023-04-04T01:43:31;100620.91;;;3.03;31.86
60087;BME280;45960;53.630;55.972;2023-04-04T01:44:34;100622.63;;;3.04;31.78
60087;BME280;45960;53.630;55.972;2023-04-04T01:45:35;100620.91;;;3.03;31.77
60087;BME280;45960;53.630;55.972;2023-04-04T01:46:41;100624.44;;;3.02;31.74
60087;BME280;45960;53.630;55.972;2023-04-04T01:47:43;100619.16;;;3.02;31.93
60087;BME280;45960;53.630;55.972;2023-04-04T01:48:49;100628.88;;;3.01;32.01
60087;BME280;45960;53.630;55.972;2023-04-04T01:49:54;100622.72;;;3.01;31.98
60087;BME280;45960;53.630;55.972;2023-04-04T01:50:56;100628.88;;;3.01;32.08
60087;BME280;45960;53.630;55.972;2023-04-04T01:51:59;100621.88;;;3.00;31.91
60087;BME280;45960;53.630;55.972;2023-04-04T01:53:01;100630.66;;;3.01;32.18
60087;BME280;45960;53.630;55.972;2023-04-04T01:54:02;100635.00;;;3.02;32.07
60087;BME280;45960;53.630;55.972;2023-04-04T01:55:03;100624.44;;;3.02;32.28
60087;BME280;45960;53.630;55.972;2023-04-04T01:56:06;100628.00;;;3.01;31.95
60087;BME280;45960;53.630;55.972;2023-04-04T01:57:08;100628.00;;;3.01;32.12
60087;BME280;45960;53.630;55.972;2023-04-04T01:58:09;100627.09;;;3.02;31.92
60087;BME280;45960;53.630;55.972;2023-04-04T01:59:11;100620.91;;;3.03;31.99
60087;BME280;45960;53.630;55.972;2023-04-04T02:00:12;100627.06;;;3.03;32.06
60087;BME280;45960;53.630;55.972;2023-04-04T02:01:18;100628.78;;;3.04;32.05
60087;BME280;45960;53.630;55.972;2023-04-04T02:02:19;100626.09;;;3.06;32.05
60087;BME280;45960;53.630;55.972;2023-04-04T02:03:21;100633.09;;;3.07;31.92
60087;BME280;45960;53.630;55.972;2023-04-04T02:04:22;100629.53;;;3.08;31.91
60087;BME280;45960;53.630;55.972;2023-04-04T02:05:23;100629.53;;;3.08;32.13
60087;BME280;45960;53.630;55.972;2023-04-04T02:06:24;100633.00;;;3.10;32.17
60087;BME280;45960;53.630;55.972;2023-04-04T02:07:25;100632.13;;;3.11;32.15
60087;BME280;45960;53.630;55.972;2023-04-04T02:08:26;100630.34;;;3.11;32.08
60087;BME280;45960;53.630;55.972;2023-04-04T02:09:30;100632.91;;;3.13;32.12
60087;BME280;45960;53.630;55.972;2023-04-04T02:10:30;100625.84;;;3.15;32.10
60087;BME280;45960;53.630;55.972;2023-04-04T02:11:32;100628.47;;;3.15;31.94
60087;BME280;45960;53.630;55.972;2023-04-04T02:12:32;100627.56;;;3.16;31.89
60087;BME280;45960;53.630;55.972;2023-04-04T02:13:33;100629.31;;;3.17;32.04
60087;BME280;45960;53.630;55.972;2023-04-04T02:14:34;100637.13;;;3.20;32.12
60087;BME280;45960;53.630;55.972;2023-04-04T02:15:36;100639.72;;;3.22;32.00
60087;BME280;45960;53.630;55.972;2023-04-04T02:16:36;100629.13;;;3.23;31.64
60087;BME280;45960;53.630;55.972;2023-04-04T02:17:38;100637.88;;;3.25;32.14
60087;BME280;45960;53.630;55.972;2023-04-04T02:18:40;100634.31;;;3.26;32.11
60087;BME280;45960;53.630;55.972;2023-04-04T02:19:41;100632.50;;;3.28;32.16
60087;BME280;45960;53.630;55.972;2023-04-04T02:20:41;100633.28;;;3.30;32.01
60087;BME280;45960;53.630;55.972;2023-04-04T02:21:42;100634.13;;;3.32;32.16
60087;BME280;45960;53.630;55.972;2023-04-04T02:22:52;100632.31;;;3.34;32.09
60087;BME280;45960;53.630;55.972;2023-04-04T02:23:53;100624.31;;;3.36;32.22
60087;BME280;45960;53.630;55.972;2023-04-04T02:24:54;100635.69;;;3.40;32.22
60087;BME280;45960;53.630;55.972;2023-04-04T02:25:57;100625.97;;;3.40;32.10
60087;BME280;45960;53.630;55.972;2023-04-04T02:26:57;100632.00;;;3.44;32.16
60087;BME280;45960;53.630;55.972;2023-04-04T02:27:58;100630.19;;;3.46;31.98
60087;BME280;45960;53.630;55.972;2023-04-04T02:29:00;100630.09;;;3.49;32.22
60087;BME280;45960;53.630;55.972;2023-04-04T02:30:02;100631.81;;;3.50;31.94
60087;BME280;45960;53.630;55.972;2023-04-04T02:31:03;100631.75;;;3.53;32.11
60087;BME280;45960;53.630;55.972;2023-04-04T02:32:04;100631.66;;;3.56;32.10
60087;BME280;45960;53.630;55.972;2023-04-04T02:33:05;100638.56;;;3.60;31.92
60087;BME280;45960;53.630;55.972;2023-04-04T02:34:07;100628.84;;;3.61;31.98
60087;BME280;45960;53.630;55.972;2023-04-04T02:35:08;100634.00;;;3.65;31.85
60087;BME280;45960;53.630;55.972;2023-04-04T02:36:10;100627.69;;;3.69;31.80
60087;BME280;45960;53.630;55.972;2023-04-04T02:37:13;100627.59;;;3.72;31.82
60087;BME280;45960;53.630;55.972;2023-04-04T02:38:14;100623.97;;;3.76;31.88
60087;BME280;45960;53.630;55.972;2023-04-04T02:39:18;100629.16;;;3.79;32.07
60087;BME280;45960;53.630;55.972;2023-04-04T02:40:19;100630.78;;;3.84;32.05
60087;BME280;45960;53.630;55.972;2023-04-04T02:41:20;100627.13;;;3.88;31.80
60087;BME280;45960;53.630;55.972;2023-04-04T02:42:21;100626.19;;;3.90;31.85
60087;BME280;45960;53.630;55.972;2023-04-04T02:43:22;100630.41;;;3.96;31.95
60087;BME280;45960;53.630;55.972;2023-04-04T02:44:24;100630.28;;;3.99;31.94
60087;BME280;45960;53.630;55.972;2023-04-04T02:45:26;100624.91;;;4.02;32.14
60087;BME280;45960;53.630;55.972;2023-04-04T02:46:35;100628.28;;;4.07;31.92
60087;BME280;45960;53.630;55.972;2023-04-04T02:47:39;100631.66;;;4.11;32.03
60087;BME280;45960;53.630;55.972;2023-04-04T02:48:41;100631.53;;;4.15;31.98
60087;BME280;45960;53.630;55.972;2023-04-04T02:49:41;100632.28;;;4.19;31.87
60087;BME280;45960;53.630;55.972;2023-04-04T02:50:42;100632.19;;;4.22;31.88
60087;BME280;45960;53.630;55.972;2023-04-04T02:51:45;100629.38;;;4.26;31.78
60087;BME280;45960;53.630;55.972;2023-04-04T02:52:47;100632.75;;;4.32;31.78
60087;BME280;45960;53.630;55.972;2023-04-04T02:53:48;100629.06;;;4.36;31.80
60087;BME280;45960;53.630;55.972;2023-04-04T02:55:01;100635.06;;;4.41;31.75
60087;BME280;45960;53.630;55.972;2023-04-04T02:56:07;100635.78;;;4.46;31.87
60087;BME280;45960;53.630;55.972;2023-04-04T02:57:08;100628.56;;;4.51;31.80
60087;BME280;45960;53.630;55.972;2023-04-04T02:58:09;100623.94;;;4.56;32.04
60087;BME280;45960;53.630;55.972;2023-04-04T02:59:10;100619.38;;;4.61;31.93
60087;BME280;45960;53.630;55.972;2023-04-04T03:00:11;100629.72;;;4.67;31.95
60087;BME280;45960;53.630;55.972;2023-04-04T03:01:11;100621.63;;;4.72;31.78
60087;BME280;45960;53.630;55.972;2023-04-04T03:02:12;100631.13;;;4.78;31.85
60087;BME280;45960;53.630;55.972;2023-04-04T03:03:13;100626.59;;;4.81;31.84
60087;BME280;45960;53.630;55.972;2023-04-04T03:04:18;100629.09;;;4.86;32.01
60087;BME280;45960;53.630;55.972;2023-04-04T03:05:19;100634.22;;;4.90;31.94
60087;BME280;45960;53.630;55.972;2023-04-04T03:06:19;100628.75;;;4.95;31.87
60087;BME280;45960;53.630;55.972;2023-04-04T03:07:22;100632.09;;;5.00;31.70
60087;BME280;45960;53.630;55.972;2023-04-04T03:08:26;100641.59;;;5.06;31.97
60087;BME280;45960;53.630;55.972;2023-04-04T03:09:31;100631.75;;;5.09;31.97
60087;BME280;45960;53.630;55.972;2023-04-04T03:10:32;100635.09;;;5.14;31.83
60087;BME280;45960;53.630;55.972;2023-04-04T03:11:33;100636.72;;;5.19;31.67
60087;BME280;45960;53.630;55.972;2023-04-04T03:12:34;100639.13;;;5.25;31.80
60087;BME280;45960;53.630;55.972;2023-04-04T03:13:35;100639.88;;;5.28;31.95
60087;BME280;45960;53.630;55.972;2023-04-04T03:14:36;100636.13;;;5.34;31.83
60087;BME280;45960;53.630;55.972;2023-04-04T03:15:37;100636.81;;;5.39;32.03
60087;BME280;45960;53.630;55.972;2023-04-04T03:16:40;100639.22;;;5.45;31.90
60087;BME280;45960;53.630;55.972;2023-04-04T03:17:41;100637.28;;;5.50;31.99
60087;BME280;45960;53.630;55.972;2023-04-04T03:18:42;100640.63;;;5.55;31.85
60087;BME280;45960;53.630;55.972;2023-04-04T03:19:44;100642.09;;;5.63;31.83
60087;BME280;45960;53.630;55.972;2023-04-04T03:20:46;100638.41;;;5.67;32.12
60087;BME280;45960;53.630;55.972;2023-04-04T03:21:46;100639.09;;;5.72;32.07
60087;BME280;45960;53.630;55.972;2023-04-04T03:22:47;100638.03;;;5.76;31.97
60087;BME280;45960;53.630;55.972;2023-04-04T03:23:49;100636.06;;;5.81;32.01
60087;BME280;45960;53.630;55.972;2023-04-04T03:24:50;100636.81;;;5.84;32.09
60087;BME280;45960;53.630;55.972;2023-04-04T03:25:53;100636.56;;;5.91;32.11
60087;BME280;45960;53.630;55.972;2023-04-04T03:26:54;100632.03;;;5.94;32.07
60087;BME280;45960;53.630;55.972;2023-04-04T03:27:55;100642.41;;;6.00;32.07
60087;BME280;45960;53.630;55.972;2023-04-04T03:29:00;100643.94;;;6.06;32.19
60087;BME280;45960;53.630;55.972;2023-04-04T03:30:05;100633.16;;;6.11;32.02
60087;BME280;45960;53.630;55.972;2023-04-04T03:31:06;100634.75;;;6.15;32.06
60087;BME280;45960;53.630;55.972;2023-04-04T03:32:11;100631.00;;;6.19;31.95
60087;BME280;45960;53.630;55.972;2023-04-04T03:33:12;100629.03;;;6.24;32.29
60087;BME280;45960;53.630;55.972;2023-04-04T03:34:12;100628.78;;;6.30;32.18
60087;BME280;45960;53.630;55.972;2023-04-04T03:35:14;100625.09;;;6.34;32.23
60087;BME280;45960;53.630;55.972;2023-04-04T03:36:15;100631.06;;;6.39;32.25
60087;BME280;45960;53.630;55.972;2023-04-04T03:37:16;100633.47;;;6.45;32.35
60087;BME280;45960;53.630;55.972;2023-04-04T03:38:17;100635.03;;;6.49;32.34
60087;BME280;45960;53.630;55.972;2023-04-04T03:39:18;100626.03;;;6.54;32.38
60087;BME280;45960;53.630;55.972;2023-04-04T03:40:19;100625.75;;;6.60;32.16
60087;BME280;45960;53.630;55.972;2023-04-04T03:41:20;100622.06;;;6.64;32.08
60087;BME280;45960;53.630;55.972;2023-04-04T03:42:21;100620.94;;;6.69;32.38
60087;BME280;45960;53.630;55.972;2023-04-04T03:43:21;100619.00;;;6.73;32.37
60087;BME280;45960;53.630;55.972;2023-04-04T03:44:22;100618.72;;;6.79;32.21
60087;BME280;45960;53.630;55.972;2023-04-04T03:45:23;100623.84;;;6.84;32.52
60087;BME280;45960;53.630;55.972;2023-04-04T03:46:24;100615.66;;;6.88;32.44
60087;BME280;45960;53.630;55.972;2023-04-04T03:47:25;100619.81;;;6.94;32.75
60087;BME280;45960;53.630;55.972;2023-04-04T03:48:27;100622.28;;;6.99;32.49
60087;BME280;45960;53.630;55.972;2023-04-04T03:49:28;100625.59;;;7.04;32.14
60087;BME280;45960;53.630;55.972;2023-04-04T03:50:29;100619.16;;;7.09;32.12
60087;BME280;45960;53.630;55.972;2023-04-04T03:51:31;100623.31;;;7.15;32.31
60087;BME280;45960;53.630;55.972;2023-04-04T03:52:36;100626.63;;;7.20;32.25
60087;BME280;45960;53.630;55.972;2023-04-04T03:53:36;100621.03;;;7.26;32.63
60087;BME280;45960;53.630;55.972;2023-04-04T03:54:37;100622.59;;;7.30;32.26
60087;BME280;45960;53.630;55.972;2023-04-04T03:55:39;100628.50;;;7.37;32.20
60087;BME280;45960;53.630;55.972;2023-04-04T03:56:41;100622.06;;;7.43;32.09
60087;BME280;45960;53.630;55.972;2023-04-04T03:57:42;100620.91;;;7.48;32.03
60087;BME280;45960;53.630;55.972;2023-04-04T03:58:45;100626.78;;;7.55;32.16
60087;BME280;45960;53.630;55.972;2023-04-04T03:59:51;100622.03;;;7.61;32.11
60087;BME280;45960;53.630;55.972;2023-04-04T04:00:54;100625.28;;;7.68;32.36
60087;BME280;45960;53.630;55.972;2023-04-04T04:01:57;100622.31;;;7.74;32.13
60087;BME280;45960;53.630;55.972;2023-04-04T04:02:57;100624.66;;;7.80;32.21
60087;BME280;45960;53.630;55.972;2023-04-04T04:03:58;100618.28;;;7.84;32.15
60087;BME280;45960;53.630;55.972;2023-04-04T04:05:00;100616.13;;;7.93;32.18
60087;BME280;45960;53.630;55.972;2023-04-04T04:06:01;100619.31;;;7.99;32.26
60087;BME280;45960;53.630;55.972;2023-04-04T04:07:02;100618.16;;;8.05;32.27
60087;BME280;45960;53.630;55.972;2023-04-04T04:08:03;100609.88;;;8.11;32.09
60087;BME280;45960;53.630;55.972;2023-04-04T04:09:04;100616.63;;;8.18;32.21
60087;BME280;45960;53.630;55.972;2023-04-04T04:10:05;100616.31;;;8.24;31.97
60087;BME280;45960;53.630;55.972;2023-04-04T04:11:06;100612.38;;;8.32;32.23
60087;BME280;45960;53.630;55.972;2023-04-04T04:12:07;100605.84;;;8.39;32.17
60087;BME280;45960;53.630;55.972;2023-04-04T04:13:08;100608.97;;;8.47;32.09
60087;BME280;45960;53.630;55.972;2023-04-04T04:14:09;100611.31;;;8.53;32.23
60087;BME280;45960;53.630;55.972;2023-04-04T04:15:11;100614.47;;;8.61;31.84
60087;BME280;45960;53.630;55.972;2023-04-04T04:16:14;100611.41;;;8.69;31.94
60087;BME280;45960;53.630;55.972;2023-04-04T04:17:15;100613.81;;;8.73;32.04
60087;BME280;45960;53.630;55.972;2023-04-04T04:18:15;100611.59;;;8.82;31.80
60087;BME280;45960;53.630;55.972;2023-04-04T04:19:16;100612.16;;;8.88;31.68
60087;BME280;45960;53.630;55.972;2023-04-04T04:20:17;100602.88;;;8.95;31.98
60087;BME280;45960;53.630;55.972;2023-04-04T04:21:22;100608.75;;;9.02;31.76
60087;BME280;45960;53.630;55.972;2023-04-04T04:22:23;100610.13;;;9.09;31.98
60087;BME280;45960;53.630;55.972;2023-04-04T04:23:24;100612.47;;;9.15;31.91
60087;BME280;45960;53.630;55.972;2023-04-04T04:24:25;100612.06;;;9.23;31.94
60087;BME280;45960;53.630;55.972;2023-04-04T04:25:26;100619.66;;;9.31;31.51
60087;BME280;45960;53.630;55.972;2023-04-04T04:26:43;100619.13;;;9.40;31.54
60087;BME280;45960;53.630;55.972;2023-04-04T04:27:47;100614.34;;;9.47;31.57
60087;BME280;45960;53.630;55.972;2023-04-04T04:28:50;100614.00;;;9.53;32.22
60087;BME280;45960;53.630;55.972;2023-04-04T04:29:56;100614.50;;;9.59;31.70
60087;BME280;45960;53.630;55.972;2023-04-04T04:31:04;100612.44;;;9.64;31.67
60087;BME280;45960;53.630;55.972;2023-04-04T04:32:06;100614.00;;;9.69;32.06
60087;BME280;45960;53.630;55.972;2023-04-04T04:33:16;100609.38;;;9.72;31.55
60087;BME280;45960;53.630;55.972;2023-04-04T04:34:30;100605.31;;;9.81;31.58
60087;BME280;45960;53.630;55.972;2023-04-04T04:35:36;100611.06;;;9.89;32.17
60087;BME280;45960;53.630;55.972;2023-04-04T04:36:41;100616.84;;;9.97;31.55
60087;BME280;45960;53.630;55.972;2023-04-04T04:37:58;100612.78;;;10.06;31.79
60087;BME280;45960;53.630;55.972;2023-04-04T04:38:59;100615.94;;;10.13;31.51
60087;BME280;45960;53.630;55.972;2023-04-04T04:40:03;100612.91;;;10.19;31.61
60087;BME280;45960;53.630;55.972;2023-04-04T04:41:12;100614.28;;;10.26;31.41
60087;BME280;45960;53.630;55.972;2023-04-04T04:42:18;100606.91;;;10.31;31.62
60087;BME280;45960;53.630;55.972;2023-04-04T04:43:24;100605.66;;;10.37;31.52
60087;BME280;45960;53.630;55.972;2023-04-04T04:44:26;100604.44;;;10.42;31.42
60087;BME280;45960;53.630;55.972;2023-04-04T04:45:29;100603.13;;;10.49;31.53
60087;BME280;45960;53.630;55.972;2023-04-04T04:46:39;100601.81;;;10.57;31.47
60087;BME280;45960;53.630;55.972;2023-04-04T04:47:46;100603.13;;;10.64;31.63
60087;BME280;45960;53.630;55.972;2023-04-04T04:48:50;100604.50;;;10.71;31.43
60087;BME280;45960;53.630;55.972;2023-04-04T04:49:56;100593.44;;;10.77;31.23
60087;BME280;45960;53.630;55.972;2023-04-04T04:51:07;100608.91;;;10.86;31.34
60087;BME280;45960;53.630;55.972;2023-04-04T04:52:16;100608.56;;;10.92;30.91
60087;BME280;45960;53.630;55.972;2023-04-04T04:53:18;100602.81;;;10.98;31.29
60087;BME280;45960;53.630;55.972;2023-04-04T04:54:21;100601.47;;;11.06;31.21
60087;BME280;45960;53.630;55.972;2023-04-04T04:55:27;100597.34;;;11.14;31.21
60087;BME280;45960;53.630;55.972;2023-04-04T04:56:39;100603.84;;;11.25;31.05
60087;BME280;45960;53.630;55.972;2023-04-04T04:57:45;100603.47;;;11.31;31.43
60087;BME280;45960;53.630;55.972;2023-04-04T04:58:51;100604.91;;;11.36;31.64
60087;BME280;45960;53.630;55.972;2023-04-04T04:59:59;100601.81;;;11.42;31.12
60087;BME280;45960;53.630;55.972;2023-04-04T05:01:01;100599.53;;;11.51;31.09
60087;BME280;45960;53.630;55.972;2023-04-04T05:02:09;100597.22;;;11.59;31.22
60087;BME280;45960;53.630;55.972;2023-04-04T05:03:16;100599.41;;;11.67;31.09
60087;BME280;45960;53.630;55.972;2023-04-04T05:04:22;100610.56;;;11.73;30.95
60087;BME280;45960;53.630;55.972;2023-04-04T05:05:36;100601.84;;;11.84;30.94
60087;BME280;45960;53.630;55.972;2023-04-04T05:06:41;100596.78;;;11.94;30.96
60087;BME280;45960;53.630;55.972;2023-04-04T05:07:45;100598.94;;;12.01;30.93
60087;BME280;45960;53.630;55.972;2023-04-04T05:08:46;100595.75;;;12.09;30.93
60087;BME280;45960;53.630;55.972;2023-04-04T05:10:08;100599.56;;;12.19;30.71
60087;BME280;45960;53.630;55.972;2023-04-04T05:11:10;100594.53;;;12.27;30.64
60087;BME280;45960;53.630;55.972;2023-04-04T05:12:11;100593.16;;;12.35;30.57
60087;BME280;45960;53.630;55.972;2023-04-04T05:13:19;100591.78;;;12.42;30.45
60087;BME280;45960;53.630;55.972;2023-04-04T05:14:21;100593.72;;;12.52;30.74
60087;BME280;45960;53.630;55.972;2023-04-04T05:15:26;100595.69;;;12.63;30.67
60087;BME280;45960;53.630;55.972;2023-04-04T05:16:31;100597.59;;;12.74;30.41
60087;BME280;45960;53.630;55.972;2023-04-04T05:17:34;100593.44;;;12.83;30.48
60087;BME280;45960;53.630;55.972;2023-04-04T05:18:38;100599.09;;;12.91;30.30
60087;BME280;45960;53.630;55.972;2023-04-04T05:19:43;100597.72;;;12.98;30.34
60087;BME280;45960;53.630;55.972;2023-04-04T05:20:54;100589.16;;;13.06;30.23
60087;BME280;45960;53.630;55.972;2023-04-04T05:21:57;100590.31;;;13.14;30.21
60087;BME280;45960;53.630;55.972;2023-04-04T05:23:09;100591.56;;;13.21;30.16
60087;BME280;45960;53.630;55.972;2023-04-04T05:24:13;100594.59;;;13.30;30.08
60087;BME280;45960;53.630;55.972;2023-04-04T05:25:16;100593.09;;;13.38;30.15
60087;BME280;45960;53.630;55.972;2023-04-04T05:26:19;100589.84;;;13.46;30.49
60087;BME280;45960;53.630;55.972;2023-04-04T05:27:23;100591.13;;;13.53;30.23
60087;BME280;45960;53.630;55.972;2023-04-04T05:28:36;100593.16;;;13.62;30.04
60087;BME280;45960;53.630;55.972;2023-04-04T05:29:39;100586.38;;;13.70;30.03